Latest Weather Observations for Kalumburu

IDW60801

Issued at 8:02 am WST Friday 27 May 2016 (issued every 30 minutes, with the page automatically refreshed every 10 minutes)

About weather observations | Map of weather stations | Latest weather observations for WA | Other Formats
Station Details ID: 001019 Name: KALUMBURU Lat: -14.30 Lon: 126.65 Height: 23.0 m
Data from the previous 72 hours. | See also: Recent months at Kalumburu
Date/Time
WST
Temp
°C
App
Temp
°C
Dew
Point
Rel
Hum
%
Delta-T
°C
Wind Press
QNH
hPa
Press
MSL
hPa
Rain
since 9 am
mm
Dir
 
Spd
km/h
Gust
km/h
Spd
kts
Gust
kts
27/08:00am 28.0 31.1 21.5 67 4.3 S 7 13 4 7 1015.1 1015.0 0.0
27/07:30am 25.6 28.7 21.1 76 3.0 S 6 9 3 5 1015.0 1014.9 0.0
27/07:00am 23.9 26.9 20.8 83 2.0 SSW 6 9 3 5 1014.8 1014.7 0.0
27/06:30am 22.7 26.9 21.0 90 1.1 CALM 0 0 0 0 1014.5 1014.4 0.0
27/06:00am 22.0 24.8 20.5 91 1.0 SSW 6 11 3 6 1014.2 1014.1 0.0
27/05:30am 20.5 23.7 18.8 90 1.1 CALM 0 0 0 0 1013.7 1013.6 0.0
27/05:00am 20.4 23.5 18.7 90 1.1 CALM 0 0 0 0 1013.4 1013.3 0.0
27/04:30am 20.8 24.0 18.9 89 1.2 CALM 0 0 0 0 1013.1 1013.0 0.0
27/04:00am 21.0 24.4 19.3 90 1.1 CALM 0 0 0 0 1013.1 1013.0 0.0
27/03:30am 21.5 25.1 19.8 90 1.1 CALM 0 0 0 0 1013.0 1012.9 0.0
27/03:00am 21.0 24.3 19.1 89 1.2 CALM 0 0 0 0 1013.1 1013.0 0.0
27/02:30am 21.3 24.6 19.2 88 1.3 CALM 0 0 0 0 1013.3 1013.2 0.0
27/02:00am 21.7 25.3 19.8 89 1.2 CALM 0 6 0 3 1013.5 1013.4 0.0
27/01:30am 21.3 24.7 19.4 89 1.2 CALM 0 0 0 0 1013.6 1013.5 0.0
27/01:00am 21.5 24.6 19.4 88 1.3 S 2 6 1 3 1013.8 1013.7 0.0
27/12:30am 21.9 25.4 19.6 87 1.5 CALM 0 0 0 0 1013.9 1013.8 0.0
27/12:00am 22.7 26.7 20.6 88 1.4 CALM 0 0 0 0 1013.9 1013.8 0.0
 
Date/Time
WST
Temp
°C
App
Temp
°C
Dew
Point
Rel
Hum
%
Delta-T
°C
Wind Press
QNH
hPa
Press
MSL
hPa
Rain
since 9 am
mm
Dir
 
Spd
km/h
Gust
km/h
Spd
kts
Gust
kts
26/11:30pm 22.1 25.3 19.8 87 1.5 ESE 2 7 1 4 1013.8 1013.7 0.0
26/11:00pm 22.7 26.6 20.4 87 1.5 CALM 0 0 0 0 1013.8 1013.7 0.0
26/10:30pm 22.8 26.7 20.3 86 1.6 CALM 0 0 0 0 1013.9 1013.8 0.0
26/10:00pm 23.2 27.2 20.5 85 1.8 CALM 0 0 0 0 1014.0 1013.9 0.0
26/09:30pm 23.8 27.9 20.7 83 2.0 CALM 0 0 0 0 1014.0 1013.9 0.0
26/09:00pm 23.9 27.8 20.4 81 2.3 CALM 0 0 0 0 1013.8 1013.7 0.0
26/08:30pm 25.0 28.8 20.9 78 2.7 SE 2 9 1 5 1013.9 1013.8 0.0
26/08:00pm 25.1 29.2 20.8 77 2.8 CALM 0 0 0 0 1013.8 1013.7 0.0
26/07:30pm 25.5 29.4 20.3 73 3.4 CALM 0 0 0 0 1013.6 1013.5 0.0
26/07:00pm 26.1 29.1 20.0 69 4.0 N 4 6 2 3 1013.4 1013.3 0.0
26/06:30pm 27.7 30.3 20.0 63 5.0 NNW 6 7 3 4 1013.1 1013.0 0.0
26/06:00pm 28.6 31.0 20.1 60 5.6 N 7 13 4 7 1012.8 1012.7 0.0
26/05:30pm 29.3 30.6 19.3 55 6.5 N 11 15 6 8 1012.4 1012.3 0.0
26/05:00pm 30.3 30.7 18.1 48 7.8 N 13 19 7 10 1012.1 1012.0 0.0
26/04:30pm 31.1 31.3 19.4 49 7.7 NNW 17 24 9 13 1011.7 1011.6 0.0
26/04:00pm 32.2 32.3 19.1 45 8.6 N 17 28 9 15 1011.2 1011.1 0.0
26/03:30pm 33.7 32.7 16.6 36 10.9 N 17 22 9 12 1010.7 1010.6 0.0
26/03:00pm 34.5 34.0 15.9 33 11.7 NNW 13 20 7 11 1010.8 1010.7 0.0
26/02:30pm 35.1 34.6 15.9 31 12.1 NW 13 20 7 11 1010.8 1010.7 0.0
26/02:00pm 35.0 34.3 15.3 30 12.3 NNW 13 22 7 12 1011.0 1010.9 0.0
26/01:30pm 35.6 36.0 15.3 29 12.7 NE 7 13 4 7 1011.1 1011.0 0.0
26/01:00pm 35.5 34.2 13.6 26 13.4 N 13 19 7 10 1011.4 1011.3 0.0
26/12:30pm 36.0 35.6 15.2 29 13.0 NNE 11 17 6 9 1012.0 1011.9 0.0
26/12:00pm 35.3 35.1 15.6 31 12.4 NE 11 19 6 10 1012.5 1012.4 0.0
26/11:30am 35.2 35.7 15.5 30 12.4 N 7 17 4 9 1013.0 1012.9 0.0
26/11:00am 35.1 36.1 16.9 34 11.6 NNW 7 11 4 6 1013.6 1013.5 0.0
26/10:30am 33.8 34.7 16.2 35 11.1 S 6 13 3 7 1014.0 1013.9 0.0
26/10:00am 33.0 33.8 17.2 39 10.1 SSW 9 13 5 7 1014.4 1014.3 0.0
26/09:30am 32.5 34.6 19.4 46 8.6 S 7 11 4 6 1014.7 1014.6 0.0
26/09:00am 31.0 33.0 20.0 52 7.3 S 9 13 5 7 1014.8 1014.7 0.0
26/08:30am 29.4 31.8 20.8 60 5.7 S 9 15 5 8 1014.9 1014.8 0.0
26/08:00am 27.9 30.9 21.2 67 4.5 S 7 9 4 5 1014.9 1014.8 0.0
26/07:30am 25.8 28.3 21.0 75 3.2 SSW 9 13 5 7 1014.7 1014.6 0.0
26/07:00am 24.2 27.5 21.5 85 1.8 S 6 9 3 5 1014.5 1014.4 0.0
26/06:30am 21.6 25.4 20.1 91 1.0 CALM 0 0 0 0 1014.2 1014.1 0.0
26/06:00am 20.5 23.7 18.8 90 1.1 CALM 0 0 0 0 1013.8 1013.7 0.0
26/05:30am 20.6 23.8 18.9 90 1.1 CALM 0 0 0 0 1013.4 1013.3 0.0
26/05:00am 20.7 24.0 19.0 90 1.1 CALM 0 0 0 0 1013.3 1013.2 0.0
26/04:30am 20.8 24.1 19.1 90 1.1 CALM 0 0 0 0 1013.1 1013.0 0.0
26/04:00am 21.0 24.4 19.3 90 1.1 CALM 0 0 0 0 1013.0 1012.9 0.0
26/03:30am 21.5 25.1 19.8 90 1.1 CALM 0 0 0 0 1013.0 1012.9 0.0
26/03:00am 21.3 24.7 19.4 89 1.2 CALM 0 0 0 0 1013.0 1012.9 0.0
26/02:30am 21.8 25.5 19.9 89 1.2 CALM 0 0 0 0 1012.9 1012.8 0.0
26/02:00am 22.0 25.8 20.1 89 1.2 CALM 0 0 0 0 1012.8 1012.7 0.0
26/01:30am 22.1 25.8 20.0 88 1.3 CALM 0 0 0 0 1012.9 1012.8 0.0
26/01:00am 21.9 25.5 19.8 88 1.3 CALM 0 0 0 0 1013.2 1013.1 0.0
26/12:30am 22.4 25.8 20.1 87 1.5 S 2 6 1 3 1013.3 1013.2 0.0
26/12:00am 22.9 26.9 20.6 87 1.5 CALM 0 0 0 0 1013.4 1013.3 0.0
 
Date/Time
WST
Temp
°C
App
Temp
°C
Dew
Point
Rel
Hum
%
Delta-T
°C
Wind Press
QNH
hPa
Press
MSL
hPa
Rain
since 9 am
mm
Dir
 
Spd
km/h
Gust
km/h
Spd
kts
Gust
kts
25/11:30pm 23.1 27.0 20.4 85 1.8 CALM 0 0 0 0 1013.4 1013.3 0.0
25/11:00pm 23.0 26.8 20.1 84 1.9 CALM 0 0 0 0 1013.4 1013.3 0.0
25/10:30pm 23.7 27.7 20.6 83 2.0 CALM 0 0 0 0 1013.5 1013.4 0.0
25/10:00pm 24.4 28.5 20.7 80 2.4 CALM 0 0 0 0 1013.6 1013.5 0.0
25/09:30pm 24.5 28.6 20.8 80 2.4 CALM 0 0 0 0 1013.5 1013.4 0.0
25/09:00pm 24.8 28.8 20.5 77 2.8 CALM 0 0 0 0 1013.4 1013.3 0.0
25/08:30pm 25.2 28.5 20.7 76 2.9 E 4 7 2 4 1013.5 1013.4 0.0
25/08:00pm 25.3 28.3 20.1 73 3.4 N 4 7 2 4 1013.4 1013.3 0.0
25/07:30pm 26.1 29.7 19.7 68 4.1 CALM 0 4 0 2 1013.1 1013.0 0.0
25/07:00pm 27.1 29.4 19.4 62 5.0 NNE 6 7 3 4 1012.8 1012.7 0.0
25/06:30pm 27.6 29.7 19.4 61 5.3 N 7 9 4 5 1012.4 1012.3 0.0
25/06:00pm 28.4 30.5 19.3 57 5.9 NNW 7 11 4 6 1011.9 1011.8 0.0
25/05:30pm 29.0 30.4 18.7 53 6.6 NNW 9 13 5 7 1011.7 1011.6 0.0
25/05:00pm 29.6 30.5 18.4 51 7.2 NNW 11 19 6 10 1011.3 1011.2 0.0
25/04:30pm 30.9 30.8 17.9 45 8.3 NNW 15 22 8 12 1011.1 1011.0 0.0
25/04:00pm 32.2 32.5 18.8 45 8.7 N 15 20 8 11 1010.6 1010.5 0.0
25/03:30pm 32.8 32.6 18.6 43 9.2 N 17 26 9 14 1010.3 1010.2 0.0
25/03:00pm 33.8 32.8 17.9 38 10.3 N 20 30 11 16 1010.0 1009.9 0.0
25/02:30pm 34.0 33.6 18.1 39 10.3 NNW 17 24 9 13 1009.8 1009.7 0.0
25/02:00pm 34.3 34.4 17.5 36 10.8 NW 13 19 7 10 1009.8 1009.7 0.0
25/01:30pm 34.8 35.7 17.5 35 11.2 NW 9 15 5 8 1010.0 1009.9 0.0
25/01:00pm 34.5 34.0 17.7 37 10.9 NW 17 26 9 14 1010.1 1010.0 0.0
25/12:30pm 35.3 34.9 16.1 32 12.2 NNE 13 20 7 11 1010.5 1010.4 0.0
25/12:00pm 34.6 33.9 15.5 32 12.0 NE 13 24 7 13 1011.0 1010.9 0.0
25/11:30am 35.2 36.3 17.9 36 11.2 ENE 9 15 5 8 1011.5 1011.4 0.0
25/11:00am 33.9 35.4 18.0 39 10.3 NE 7 11 4 6 1012.0 1011.9 0.0
25/10:30am 33.2 34.9 19.3 44 9.1 W 9 11 5 6 1012.4 1012.3 0.0
25/10:00am 32.1 34.0 19.7 48 8.2 SSW 9 11 5 6 1012.9 1012.8 0.0
25/09:30am 32.0 34.5 20.3 50 7.8 SSW 7 11 4 6 1013.2 1013.1 0.0
25/09:00am 31.2 35.1 21.9 57 6.3 NW 4 7 2 4 1013.4 1013.3 -
25/08:30am 29.4 32.6 21.6 63 5.2 SW 7 9 4 5 1013.5 1013.4 -
25/08:00am 28.1 31.8 22.3 70 3.9 S 6 9 3 5 1013.5 1013.4 -
25/07:30am 26.4 30.3 22.5 79 2.6 SSE 6 7 3 4 1013.5 1013.4 -
25/07:00am 24.4 29.4 22.5 89 1.3 CALM 0 0 0 0 1013.3 1013.2 -
25/06:30am 22.8 27.2 21.3 91 1.0 CALM 0 0 0 0 1013.3 1013.2 -
25/06:00am 21.7 25.4 20.0 90 1.1 CALM 0 0 0 0 1013.0 1012.9 -
25/05:30am 21.7 - 20.0 90 1.1 - - - - - 1012.6 1012.5 -
25/05:00am 22.4 26.5 20.7 90 1.1 CALM 0 0 0 0 1012.4 1012.3 0.0
25/04:30am 22.2 26.2 20.5 90 1.1 CALM 0 0 0 0 1012.0 1011.9 0.0
25/04:00am 23.0 27.0 21.3 90 1.1 SSW 2 7 1 4 1011.8 1011.7 0.0
25/03:30am 22.9 27.2 21.2 90 1.1 CALM 0 0 0 0 1011.8 1011.7 0.0
25/03:00am 22.4 26.4 20.5 89 1.2 CALM 0 0 0 0 1011.8 1011.7 0.0
25/02:30am 22.9 27.1 21.0 89 1.2 CALM 0 0 0 0 1012.0 1011.9 0.0
25/02:00am 23.2 27.6 21.3 89 1.2 CALM 0 0 0 0 1012.1 1012.0 0.0
25/01:30am 23.3 27.7 21.4 89 1.3 CALM 0 0 0 0 1012.2 1012.1 0.0
25/01:00am 23.5 27.9 21.4 88 1.4 CALM 0 0 0 0 1012.4 1012.3 0.0
25/12:30am 23.7 28.2 21.6 88 1.4 CALM 0 0 0 0 1012.5 1012.4 0.0
25/12:00am 23.9 28.5 21.8 88 1.4 CALM 0 0 0 0 1012.5 1012.4 0.0
 
Date/Time
WST
Temp
°C
App
Temp
°C
Dew
Point
Rel
Hum
%
Delta-T
°C
Wind Press
QNH
hPa
Press
MSL
hPa
Rain
since 9 am
mm
Dir
 
Spd
km/h
Gust
km/h
Spd
kts
Gust
kts
24/11:30pm 24.0 27.8 21.7 87 1.5 N 4 6 2 3 1012.6 1012.5 0.0
24/11:00pm 24.7 28.4 22.2 86 1.7 S 6 7 3 4 1012.8 1012.7 0.0
24/10:30pm 24.6 28.2 22.1 86 1.7 SW 6 7 3 4 1012.9 1012.8 0.0
24/10:00pm 25.0 29.8 22.1 84 1.9 CALM 0 0 0 0 1012.9 1012.8 0.0
24/09:30pm 25.6 30.6 22.5 83 2.1 CALM 0 0 0 0 1013.1 1013.0 0.0
24/09:00pm 25.6 30.4 22.1 81 2.3 CALM 0 0 0 0 1013.2 1013.1 0.0
24/08:30pm 26.0 30.8 22.1 79 2.6 CALM 0 0 0 0 1013.2 1013.1 0.0
24/08:00pm 27.0 30.7 22.2 75 3.2 NW 6 7 3 4 1013.0 1012.9 0.0
24/07:30pm 27.8 31.5 22.5 73 3.6 N 7 9 4 5 1012.6 1012.5 0.0
24/07:00pm 28.4 31.6 22.4 70 4.1 N 9 11 5 6 1012.3 1012.2 0.0
24/06:30pm 28.8 32.1 21.8 66 4.7 NNW 7 11 4 6 1012.0 1011.9 0.0
24/06:00pm 28.9 31.4 21.7 65 4.8 N 11 19 6 10 1011.8 1011.7 0.0
24/05:30pm 29.1 31.3 21.1 62 5.3 N 11 17 6 9 1011.4 1011.3 0.0
24/05:00pm 29.7 30.8 20.5 57 6.1 N 15 24 8 13 1011.1 1011.0 0.0
24/04:30pm 30.5 31.7 20.7 55 6.5 NNW 15 24 8 13 1010.6 1010.5 0.0
24/04:00pm 31.9 32.0 19.2 47 8.3 NNW 17 22 9 12 1010.4 1010.3 0.0
24/03:30pm 33.1 32.9 18.5 42 9.5 N 17 22 9 12 1010.1 1010.0 0.0
24/03:00pm 33.3 32.1 17.1 38 10.4 NNW 19 24 10 13 1010.2 1010.1 0.0
24/02:30pm 34.1 33.4 16.5 35 11.2 N 15 20 8 11 1010.2 1010.1 0.0
24/02:00pm 34.7 34.4 16.5 33 11.6 NNW 13 19 7 10 1010.3 1010.2 0.0
24/01:30pm 34.9 34.7 16.7 34 11.6 NW 13 19 7 10 1010.5 1010.4 0.0
24/01:00pm 34.8 34.2 16.6 33 11.6 NW 15 22 8 12 1010.8 1010.7 0.0
24/12:30pm 34.9 34.3 15.7 31 12.1 NNW 13 19 7 10 1011.1 1011.0 0.0
24/12:00pm 34.5 34.8 14.9 31 12.2 NW 7 17 4 9 1011.6 1011.5 0.0
24/11:30am 34.3 34.5 15.7 32 11.7 ENE 9 13 5 7 1012.2 1012.1 0.0
24/11:00am 34.6 35.0 16.4 33 11.6 NNE 9 15 5 8 1012.7 1012.6 0.0
24/10:30am 34.2 35.8 18.3 39 10.3 ENE 7 15 4 8 1013.0 1012.9 0.0
24/10:00am 32.9 33.6 17.1 39 10.1 E 9 15 5 8 1013.5 1013.4 0.0
24/09:30am 32.6 33.2 16.8 38 10.0 E 9 15 5 8 1013.8 1013.7 0.0
24/09:00am 31.1 31.4 15.9 40 9.5 ESE 9 17 5 9 1013.9 1013.8 0.0
24/08:30am 29.9 31.0 17.0 45 8.1 S 7 13 4 7 1013.9 1013.8 0.0

Other Formats:

Comma delimited format used in spreadsheet applications
http://www.bom.gov.au/fwo/IDW60801/IDW60801.94100.axf

JavaScript Object Notation format (JSON) in row-major order
http://www.bom.gov.au/fwo/IDW60801/IDW60801.94100.json